createdAt,value
2018-12-11T00:00:12.488Z,61.23
2018-12-11T00:00:43.666Z,60.96
2018-12-11T00:01:14.816Z,60.85
2018-12-11T00:01:45.932Z,61.00
2018-12-11T00:02:17.077Z,60.41
2018-12-11T00:02:48.188Z,60.50
2018-12-11T00:03:19.285Z,60.46
2018-12-11T00:03:50.384Z,60.58
2018-12-11T00:04:21.490Z,60.55
2018-12-11T00:04:52.595Z,60.66
2018-12-11T00:05:23.688Z,60.70
2018-12-11T00:05:54.837Z,60.71
2018-12-11T00:06:25.937Z,60.54
2018-12-11T00:06:57.037Z,60.63
2018-12-11T00:07:28.144Z,60.60
2018-12-11T00:07:59.962Z,60.17
2018-12-11T00:08:31.056Z,59.91
2018-12-11T00:09:02.156Z,60.43
2018-12-11T00:09:33.281Z,59.92
2018-12-11T00:10:04.392Z,60.46
2018-12-11T00:10:35.494Z,60.24
2018-12-11T00:11:06.624Z,60.38
2018-12-11T00:11:37.736Z,60.42
2018-12-11T00:12:08.842Z,60.18
2018-12-11T00:12:39.960Z,60.73
2018-12-11T00:13:11.065Z,60.39
2018-12-11T00:13:42.168Z,60.05
2018-12-11T00:14:13.273Z,60.18
2018-12-11T00:14:44.364Z,61.06
2018-12-11T00:15:15.475Z,60.31
2018-12-11T00:15:46.608Z,60.26
2018-12-11T00:16:17.706Z,60.23
2018-12-11T00:16:48.805Z,60.22
2018-12-11T00:17:19.941Z,60.41
2018-12-11T00:17:51.036Z,60.32
2018-12-11T00:18:22.132Z,60.76
2018-12-11T00:18:53.237Z,60.25
2018-12-11T00:19:24.340Z,60.19
2018-12-11T00:19:55.477Z,60.15
2018-12-11T00:20:27.496Z,60.49
2018-12-11T00:20:58.817Z,60.63
2018-12-11T00:21:29.912Z,60.62
2018-12-11T00:22:01.020Z,60.45
2018-12-11T00:22:32.193Z,59.98
2018-12-11T00:23:03.293Z,60.49
2018-12-11T00:23:34.496Z,60.50
2018-12-11T00:24:05.603Z,60.92
2018-12-11T00:24:36.792Z,60.54
2018-12-11T00:25:09.053Z,60.43
2018-12-11T00:25:40.191Z,60.36
2018-12-11T00:26:11.310Z,61.32
2018-12-11T00:26:42.409Z,60.46
2018-12-11T00:27:13.565Z,60.36
2018-12-11T00:27:44.669Z,60.28
2018-12-11T00:28:15.769Z,60.12
2018-12-11T00:28:47.137Z,60.20
2018-12-11T00:29:18.330Z,60.04
2018-12-11T00:29:50.424Z,60.25
2018-12-11T00:30:21.548Z,60.24
2018-12-11T00:30:52.652Z,61.11
2018-12-11T00:31:24.449Z,60.21
2018-12-11T00:31:55.546Z,60.42
2018-12-11T00:32:26.643Z,60.08
2018-12-11T00:32:59.650Z,60.10
2018-12-11T00:33:32.374Z,60.24
2018-12-11T00:34:03.604Z,59.94
2018-12-11T00:34:34.883Z,60.20
2018-12-11T00:35:05.980Z,60.30
2018-12-11T00:35:37.231Z,60.31
2018-12-11T00:36:08.324Z,60.48
2018-12-11T00:36:39.444Z,60.42
2018-12-11T00:37:11.205Z,60.59
2018-12-11T00:37:42.340Z,60.48
2018-12-11T00:38:14.028Z,60.31
2018-12-11T00:38:45.907Z,60.47
2018-12-11T00:39:17.049Z,60.79
2018-12-11T00:39:48.186Z,60.42
2018-12-11T00:40:19.373Z,60.54
2018-12-11T00:40:50.509Z,60.95
2018-12-11T00:41:21.830Z,60.77
2018-12-11T00:41:52.916Z,61.02
2018-12-11T00:42:24.032Z,60.42
2018-12-11T00:42:55.126Z,60.79
2018-12-11T00:43:26.315Z,60.62
2018-12-11T00:43:57.412Z,60.54
2018-12-11T00:44:29.844Z,60.79
2018-12-11T00:45:01.543Z,60.64
2018-12-11T00:45:33.736Z,60.47
2018-12-11T00:46:04.838Z,60.64
2018-12-11T00:46:36.199Z,60.27
2018-12-11T00:47:09.016Z,60.50
2018-12-11T00:47:40.262Z,60.93
2018-12-11T00:48:11.376Z,60.54
2018-12-11T00:48:42.892Z,60.56
2018-12-11T00:49:13.996Z,60.31
2018-12-11T00:49:45.101Z,60.24
2018-12-11T00:50:16.719Z,60.11
2018-12-11T00:50:48.949Z,60.61
2018-12-11T00:51:20.852Z,60.29
2018-12-11T00:51:52.995Z,60.07
2018-12-11T00:52:24.938Z,60.02
2018-12-11T00:52:57.404Z,60.11
2018-12-11T00:53:28.550Z,60.00
2018-12-11T00:53:59.697Z,60.18
2018-12-11T00:54:30.884Z,60.26
2018-12-11T00:55:02.026Z,60.52
2018-12-11T00:55:33.393Z,60.00
2018-12-11T00:56:04.497Z,60.04
2018-12-11T00:56:35.697Z,60.87
2018-12-11T00:57:07.059Z,59.79
2018-12-11T00:57:38.481Z,59.94
2018-12-11T00:58:09.592Z,59.80
2018-12-11T00:58:40.761Z,59.88
2018-12-11T00:59:11.889Z,59.76
2018-12-11T00:59:43.587Z,59.53
2018-12-11T01:00:15.549Z,59.46
2018-12-11T01:00:46.726Z,59.77
2018-12-11T01:01:18.356Z,59.79
2018-12-11T01:01:49.668Z,59.83
2018-12-11T01:02:20.760Z,59.86
2018-12-11T01:02:52.096Z,59.58
2018-12-11T01:03:24.366Z,59.56
2018-12-11T01:03:55.469Z,59.98
2018-12-11T01:04:26.613Z,59.80
2018-12-11T01:04:57.716Z,59.60
2018-12-11T01:05:28.814Z,59.76
2018-12-11T01:06:00.049Z,60.55
2018-12-11T01:06:31.165Z,59.27
2018-12-11T01:07:03.308Z,59.25
2018-12-11T01:07:34.977Z,59.56
2018-12-11T01:08:06.105Z,59.41
2018-12-11T01:08:37.225Z,58.93
2018-12-11T01:09:09.171Z,59.71
2018-12-11T01:09:41.113Z,59.48
2018-12-11T01:10:12.897Z,60.01
2018-12-11T01:10:44.597Z,59.45
2018-12-11T01:11:15.699Z,59.54
2018-12-11T01:11:47.836Z,59.07
2018-12-11T01:12:18.976Z,58.92
2018-12-11T01:12:50.118Z,59.35
2018-12-11T01:13:21.409Z,59.24
2018-12-11T01:13:52.560Z,59.58
2018-12-11T01:14:23.773Z,59.02
2018-12-11T01:14:54.901Z,59.04
2018-12-11T01:15:27.103Z,59.32
2018-12-11T01:15:58.240Z,59.10
2018-12-11T01:16:29.909Z,59.18
2018-12-11T01:17:01.848Z,58.72
2018-12-11T01:17:32.969Z,58.73
2018-12-11T01:18:04.364Z,59.08
2018-12-11T01:18:35.481Z,59.00
2018-12-11T01:19:08.869Z,59.10
2018-12-11T01:19:40.575Z,59.08
2018-12-11T01:20:11.716Z,58.83
2018-12-11T01:20:43.272Z,59.13
2018-12-11T01:21:15.153Z,59.40
2018-12-11T01:21:47.053Z,59.46
2018-12-11T01:22:18.822Z,60.37
2018-12-11T01:22:51.215Z,59.36
2018-12-11T01:23:22.357Z,58.85
2018-12-11T01:23:53.479Z,58.46
2018-12-11T01:24:24.640Z,58.44
2018-12-11T01:24:55.805Z,58.55
2018-12-11T01:25:27.023Z,58.91
2018-12-11T01:25:58.288Z,58.85
2018-12-11T01:26:29.458Z,59.07
2018-12-11T01:27:00.610Z,58.93
2018-12-11T01:27:32.447Z,59.25
2018-12-11T01:28:04.878Z,59.00
2018-12-11T01:29:31.027Z,59.04
2018-12-11T01:30:02.145Z,59.43
2018-12-11T01:30:33.244Z,59.26
2018-12-11T01:31:04.384Z,59.45
2018-12-11T01:31:35.531Z,59.46
2018-12-11T01:32:07.931Z,59.29
2018-12-11T01:32:39.041Z,59.36
2018-12-11T01:33:13.031Z,59.30
2018-12-11T01:33:44.133Z,59.11
2018-12-11T01:34:15.828Z,58.90
2018-12-11T01:34:46.993Z,59.04
2018-12-11T01:35:18.112Z,58.51
2018-12-11T01:35:50.257Z,58.87
2018-12-11T01:36:21.549Z,58.80
2018-12-11T01:36:52.732Z,58.88
2018-12-11T01:37:25.758Z,59.12
2018-12-11T01:37:57.488Z,58.54
2018-12-11T01:38:28.626Z,58.49
2018-12-11T01:38:59.726Z,58.48
2018-12-11T01:39:31.436Z,58.62
2018-12-11T01:40:02.620Z,58.16
2018-12-11T01:40:33.747Z,57.96
2018-12-11T01:41:04.852Z,58.14
2018-12-11T01:41:36.852Z,58.06
2018-12-11T01:42:07.969Z,58.19
2018-12-11T01:42:39.064Z,58.38
2018-12-11T01:43:10.340Z,57.95
2018-12-11T01:43:41.576Z,57.98
2018-12-11T01:44:12.739Z,58.04
2018-12-11T01:44:43.903Z,57.61
2018-12-11T01:45:15.162Z,57.38
2018-12-11T01:45:46.267Z,57.93
2018-12-11T01:46:17.417Z,57.35
2018-12-11T01:46:48.556Z,57.72
2018-12-11T01:47:20.322Z,57.38
2018-12-11T01:47:53.226Z,57.34
2018-12-11T01:48:24.329Z,57.16
2018-12-11T01:48:55.451Z,57.52
2018-12-11T01:49:26.623Z,57.67
2018-12-11T01:49:57.738Z,57.41
2018-12-11T01:50:29.480Z,57.62
2018-12-11T01:51:00.690Z,57.52
2018-12-11T01:51:31.795Z,57.42
2018-12-11T01:52:03.744Z,57.47
2018-12-11T01:52:34.851Z,57.18
2018-12-11T01:53:06.050Z,56.99
2018-12-11T01:53:38.000Z,56.77
2018-12-11T01:54:09.185Z,56.97
2018-12-11T01:54:41.054Z,56.97
2018-12-11T01:55:12.187Z,57.02
2018-12-11T01:55:43.288Z,57.95
2018-12-11T01:56:14.424Z,57.06
2018-12-11T01:56:46.120Z,56.98
2018-12-11T01:57:17.817Z,56.80
2018-12-11T01:57:50.188Z,58.18
2018-12-11T01:58:22.383Z,57.07
2018-12-11T01:58:53.668Z,56.72
2018-12-11T01:59:26.931Z,56.61
2018-12-11T01:59:58.068Z,56.45
2018-12-11T02:00:29.208Z,56.80
2018-12-11T02:01:00.325Z,56.83
2018-12-11T02:01:32.302Z,56.96
2018-12-11T02:02:04.429Z,56.96
2018-12-11T02:02:35.571Z,56.92
2018-12-11T02:03:06.722Z,56.93
2018-12-11T02:03:38.479Z,57.22
2018-12-11T02:04:09.646Z,56.94
2018-12-11T02:04:40.771Z,57.29
2018-12-11T02:05:13.179Z,57.70
2018-12-11T02:05:44.734Z,57.26
2018-12-11T02:06:15.823Z,57.47
2018-12-11T02:06:47.187Z,57.42
2018-12-11T02:07:18.336Z,57.15
2018-12-11T02:07:49.429Z,57.59
2018-12-11T02:08:20.568Z,57.37
2018-12-11T02:08:51.964Z,57.74
2018-12-11T02:09:23.171Z,57.64
2018-12-11T02:09:55.538Z,57.47
2018-12-11T02:10:26.729Z,57.55
2018-12-11T02:10:57.842Z,57.70
2018-12-11T02:11:28.987Z,57.44
2018-12-11T02:12:00.083Z,57.79
2018-12-11T02:12:31.189Z,57.64
2018-12-11T02:13:02.382Z,57.46
2018-12-11T02:13:33.488Z,57.68
2018-12-11T02:14:04.674Z,57.74
2018-12-11T02:14:35.782Z,57.75
2018-12-11T02:15:06.980Z,57.17
2018-12-11T02:15:38.117Z,57.81
2018-12-11T02:16:09.297Z,57.34
2018-12-11T02:16:40.729Z,57.17
2018-12-11T02:17:11.841Z,57.36
2018-12-11T02:17:43.869Z,57.61
2018-12-11T02:18:15.005Z,57.22
2018-12-11T02:18:48.166Z,57.22
2018-12-11T02:19:20.185Z,57.45
2018-12-11T02:19:51.477Z,57.26
2018-12-11T02:20:23.109Z,57.33
2018-12-11T02:20:54.290Z,57.47
2018-12-11T02:21:25.395Z,57.34
2018-12-11T02:21:56.531Z,57.21
2018-12-11T02:22:27.639Z,57.28
2018-12-11T02:22:59.385Z,57.11
2018-12-11T02:23:30.550Z,57.10
2018-12-11T02:24:01.677Z,56.91
2018-12-11T02:24:32.895Z,57.00
2018-12-11T02:25:03.997Z,57.40
2018-12-11T02:25:35.164Z,56.88
2018-12-11T02:26:06.276Z,57.47
2018-12-11T02:26:37.376Z,57.03
2018-12-11T02:27:08.509Z,57.25
2018-12-11T02:27:39.649Z,57.42
2018-12-11T02:28:10.931Z,57.13
2018-12-11T02:28:42.036Z,56.87
2018-12-11T02:29:14.169Z,57.10
2018-12-11T02:29:45.279Z,57.14
2018-12-11T02:30:16.400Z,56.89
2018-12-11T02:30:47.705Z,56.81
2018-12-11T02:31:18.828Z,56.88
2018-12-11T02:31:49.984Z,56.81
2018-12-11T02:32:21.094Z,56.62
2018-12-11T02:32:52.251Z,57.02
2018-12-11T02:33:23.360Z,56.70
2018-12-11T02:33:54.459Z,57.47
2018-12-11T02:34:27.321Z,56.76
2018-12-11T02:34:58.690Z,56.60
2018-12-11T02:35:29.860Z,56.36
2018-12-11T02:36:00.955Z,56.18
2018-12-11T02:36:32.197Z,56.44
2018-12-11T02:37:03.329Z,56.77
2018-12-11T02:37:34.432Z,56.53
2018-12-11T02:38:05.586Z,56.77
2018-12-11T02:38:36.743Z,56.53
2018-12-11T02:39:10.221Z,56.46
2018-12-11T02:39:41.398Z,56.95
2018-12-11T02:40:12.510Z,56.73
2018-12-11T02:40:43.642Z,56.57
2018-12-11T02:41:15.769Z,56.94
2018-12-11T02:41:47.213Z,56.50
2018-12-11T02:42:18.341Z,57.59
2018-12-11T02:42:49.514Z,56.90
2018-12-11T02:43:20.644Z,56.72
2018-12-11T02:43:51.908Z,56.96
2018-12-11T02:44:23.956Z,56.57
2018-12-11T02:44:55.080Z,56.91
2018-12-11T02:45:26.474Z,56.98
2018-12-11T02:45:57.629Z,56.94
2018-12-11T02:46:30.473Z,57.09
2018-12-11T02:47:03.312Z,57.05
2018-12-11T02:47:35.310Z,57.24
2018-12-11T02:48:08.189Z,56.85
2018-12-11T02:48:39.903Z,57.10
2018-12-11T02:49:11.023Z,57.09
2018-12-11T02:49:43.018Z,57.20
2018-12-11T02:50:14.294Z,57.39
2018-12-11T02:50:45.416Z,57.36
2018-12-11T02:51:17.727Z,56.89
2018-12-11T02:51:49.856Z,56.89
2018-12-11T02:52:21.492Z,57.39
2018-12-11T02:52:52.587Z,57.63
2018-12-11T02:53:23.732Z,57.29
2018-12-11T02:53:54.987Z,57.42
2018-12-11T02:54:26.077Z,57.50
2018-12-11T02:54:57.265Z,57.28
2018-12-11T02:55:28.417Z,57.27
2018-12-11T02:56:01.712Z,57.19
2018-12-11T02:56:33.341Z,57.26
2018-12-11T02:57:04.466Z,57.61
2018-12-11T02:57:35.617Z,57.35
2018-12-11T02:58:06.795Z,57.41
2018-12-11T02:58:38.779Z,58.38
2018-12-11T02:59:10.929Z,57.42
2018-12-11T02:59:42.042Z,57.22
2018-12-11T03:00:13.143Z,57.36
2018-12-11T03:00:44.302Z,57.10
2018-12-11T03:01:15.406Z,57.37
2018-12-11T03:01:46.850Z,57.29
2018-12-11T03:02:18.599Z,58.55
2018-12-11T03:02:49.713Z,57.95
2018-12-11T03:03:20.923Z,57.14
2018-12-11T03:03:52.055Z,57.34
2018-12-11T03:04:24.147Z,57.17
2018-12-11T03:04:55.801Z,57.40
2018-12-11T03:05:26.960Z,57.38
2018-12-11T03:05:58.069Z,57.37
2018-12-11T03:06:29.204Z,57.19
2018-12-11T03:07:00.887Z,58.50
2018-12-11T03:07:32.846Z,57.48
2018-12-11T03:08:04.809Z,56.98
2018-12-11T03:08:36.152Z,57.12
2018-12-11T03:09:07.867Z,57.26
2018-12-11T03:09:38.969Z,57.47
2018-12-11T03:10:10.108Z,57.35
2018-12-11T03:10:41.257Z,57.28
2018-12-11T03:11:12.362Z,57.44
2018-12-11T03:11:43.811Z,56.93
2018-12-11T03:12:14.969Z,57.18
2018-12-11T03:12:47.396Z,56.78
2018-12-11T03:13:18.501Z,56.90
2018-12-11T03:13:49.813Z,57.07
2018-12-11T03:14:20.910Z,57.17
2018-12-11T03:14:52.092Z,57.01
2018-12-11T03:15:23.181Z,56.96
2018-12-11T03:15:54.958Z,56.74
2018-12-11T03:16:26.067Z,57.67
2018-12-11T03:16:57.792Z,56.81
2018-12-11T03:17:29.046Z,56.97
2018-12-11T03:18:00.293Z,56.88
2018-12-11T03:18:31.389Z,56.90
2018-12-11T03:19:02.559Z,56.84
2018-12-11T03:19:33.678Z,56.50
2018-12-11T03:20:04.830Z,56.69
2018-12-11T03:20:37.605Z,56.71
2018-12-11T03:21:08.703Z,56.66
2018-12-11T03:21:39.788Z,56.52
2018-12-11T03:22:10.942Z,56.68
2018-12-11T03:22:43.065Z,56.93
2018-12-11T03:23:15.142Z,56.17
2018-12-11T03:23:46.251Z,56.35
2018-12-11T03:24:18.227Z,56.33
2018-12-11T03:24:50.317Z,57.27
2018-12-11T03:25:21.433Z,56.33
2018-12-11T03:25:52.552Z,56.51
2018-12-11T03:26:27.996Z,56.11
2018-12-11T03:26:59.163Z,56.22
2018-12-11T03:27:30.323Z,56.58
2018-12-11T03:28:01.455Z,56.91
2018-12-11T03:28:32.565Z,56.52
2018-12-11T03:29:05.221Z,56.31
2018-12-11T03:29:36.468Z,56.59
2018-12-11T03:30:08.550Z,56.12
2018-12-11T03:30:39.680Z,56.41
2018-12-11T03:31:10.826Z,56.23
2018-12-11T03:31:41.932Z,56.17
2018-12-11T03:32:13.190Z,56.10
2018-12-11T03:32:44.346Z,56.26
2018-12-11T03:33:15.499Z,56.42
2018-12-11T03:33:46.826Z,56.38
2018-12-11T03:34:18.193Z,55.91
2018-12-11T03:34:49.294Z,56.50
2018-12-11T03:35:20.418Z,55.98
2018-12-11T03:35:51.634Z,55.73
2018-12-11T03:36:22.757Z,55.94
2018-12-11T03:36:53.868Z,55.83
2018-12-11T03:37:25.169Z,55.93
2018-12-11T03:37:56.354Z,56.02
2018-12-11T03:38:27.515Z,56.48
2018-12-11T03:38:58.715Z,55.90
2018-12-11T03:39:29.942Z,56.70
2018-12-11T03:40:01.999Z,56.14
2018-12-11T03:40:33.331Z,55.94
2018-12-11T03:41:04.519Z,55.72
2018-12-11T03:41:35.701Z,56.08
2018-12-11T03:42:07.475Z,55.82
2018-12-11T03:42:38.799Z,55.89
2018-12-11T03:43:09.913Z,55.98
2018-12-11T03:43:41.721Z,55.87
2018-12-11T03:44:12.934Z,55.76
2018-12-11T03:44:44.051Z,55.78
2018-12-11T03:45:15.270Z,55.71
2018-12-11T03:45:46.372Z,55.75
2018-12-11T03:46:17.473Z,55.73
2018-12-11T03:46:48.632Z,55.50
2018-12-11T03:47:19.759Z,55.51
2018-12-11T03:47:51.327Z,55.30
2018-12-11T03:48:22.506Z,55.63
2018-12-11T03:48:53.609Z,55.58
2018-12-11T03:49:24.725Z,55.23
2018-12-11T03:49:56.489Z,55.44
2018-12-11T03:50:27.661Z,55.09
2018-12-11T03:50:58.757Z,55.77
2018-12-11T03:51:29.921Z,55.59
2018-12-11T03:52:01.079Z,55.40
2018-12-11T03:52:32.392Z,55.81
2018-12-11T03:53:04.508Z,55.34
2018-12-11T03:53:35.721Z,55.51
2018-12-11T03:54:06.826Z,55.37
2018-12-11T03:54:37.931Z,55.54
2018-12-11T03:55:09.700Z,56.88
2018-12-11T03:55:40.835Z,55.54
2018-12-11T03:56:11.976Z,55.24
2018-12-11T03:56:44.379Z,55.23
2018-12-11T03:57:15.497Z,55.11
2018-12-11T03:57:46.622Z,55.27
2018-12-11T03:58:17.787Z,55.53
2018-12-11T03:58:49.408Z,55.20
2018-12-11T03:59:57.934Z,55.20
2018-12-11T04:00:29.094Z,55.16
2018-12-11T04:01:00.220Z,55.27
2018-12-11T04:01:32.399Z,55.09
2018-12-11T04:02:03.558Z,55.18
2018-12-11T04:02:35.184Z,55.16
2018-12-11T04:03:06.385Z,54.86
2018-12-11T04:03:37.494Z,54.96
2018-12-11T04:04:08.719Z,54.79
2018-12-11T04:04:39.827Z,54.77
2018-12-11T04:05:13.157Z,54.65
2018-12-11T04:05:44.261Z,54.54
2018-12-11T04:06:15.415Z,54.90
2018-12-11T04:06:46.549Z,54.50
2018-12-11T04:07:17.804Z,54.71
2018-12-11T04:07:49.676Z,54.79
2018-12-11T04:08:20.782Z,54.62
2018-12-11T04:08:52.453Z,55.06
2018-12-11T04:09:24.560Z,54.04
2018-12-11T04:09:55.671Z,54.27
2018-12-11T04:10:26.805Z,54.16
2018-12-11T04:10:57.999Z,54.54
2018-12-11T04:11:29.126Z,54.23
2018-12-11T04:12:00.251Z,54.30
2018-12-11T04:12:31.347Z,54.81
2018-12-11T04:13:03.414Z,54.70
2018-12-11T04:13:34.514Z,54.25
2018-12-11T04:14:06.643Z,54.17
2018-12-11T04:14:37.757Z,54.29
2018-12-11T04:15:09.660Z,54.10
2018-12-11T04:15:40.774Z,54.18
2018-12-11T04:16:11.909Z,54.02
2018-12-11T04:16:43.093Z,54.08
2018-12-11T04:17:14.295Z,53.65
2018-12-11T04:17:46.545Z,54.09
2018-12-11T04:18:17.672Z,56.21
2018-12-11T04:18:48.904Z,53.96
2018-12-11T04:19:20.136Z,53.57
2018-12-11T04:19:51.232Z,53.41
2018-12-11T04:20:22.337Z,53.50
2018-12-11T04:20:53.464Z,53.62
2018-12-11T04:21:24.553Z,54.30
2018-12-11T04:21:55.662Z,53.92
2018-12-11T04:22:26.861Z,53.63
2018-12-11T04:22:58.492Z,54.05
2018-12-11T04:23:29.591Z,53.90
2018-12-11T04:24:00.699Z,53.71
2018-12-11T04:24:31.922Z,53.78
2018-12-11T04:25:03.036Z,53.98
2018-12-11T04:25:34.307Z,54.20
2018-12-11T04:26:07.086Z,54.11
2018-12-11T04:26:38.205Z,53.78
2018-12-11T04:27:10.020Z,54.18
2018-12-11T04:27:41.378Z,53.93
2018-12-11T04:28:12.491Z,54.00
2018-12-11T04:28:44.673Z,54.81
2018-12-11T04:29:15.814Z,53.76
2018-12-11T04:29:46.960Z,54.36
2018-12-11T04:30:19.062Z,54.18
2018-12-11T04:30:50.149Z,53.75
2018-12-11T04:31:23.382Z,54.31
2018-12-11T04:31:54.487Z,54.45
2018-12-11T04:32:25.619Z,54.26
2018-12-11T04:32:57.494Z,54.48
2018-12-11T04:33:28.914Z,54.76
2018-12-11T04:34:00.101Z,54.90
2018-12-11T04:34:31.303Z,54.42
2018-12-11T04:35:02.421Z,54.50
2018-12-11T04:35:34.236Z,54.54
2018-12-11T04:36:05.712Z,54.65
2018-12-11T04:36:36.930Z,54.45
2018-12-11T04:37:08.826Z,54.14
2018-12-11T04:37:39.950Z,54.19
2018-12-11T04:38:49.476Z,54.89
2018-12-11T04:39:21.631Z,54.50
2018-12-11T04:39:53.914Z,54.57
2018-12-11T04:40:25.028Z,55.11
2018-12-11T04:40:56.849Z,55.07
2018-12-11T04:41:28.039Z,55.09
2018-12-11T04:41:59.140Z,54.98
2018-12-11T04:42:30.258Z,55.92
2018-12-11T04:43:01.364Z,55.56
2018-12-11T04:43:32.497Z,55.00
2018-12-11T04:44:03.704Z,55.23
2018-12-11T04:44:34.864Z,55.41
2018-12-11T04:45:05.969Z,55.35
2018-12-11T04:45:37.153Z,55.52
2018-12-11T04:46:08.293Z,55.65
2018-12-11T04:46:39.401Z,55.89
2018-12-11T04:47:11.731Z,55.58
2018-12-11T04:47:42.902Z,55.73
2018-12-11T04:48:14.007Z,55.48
2018-12-11T04:48:45.101Z,55.90
2018-12-11T04:49:16.232Z,56.03
2018-12-11T04:49:47.413Z,56.05
2018-12-11T04:50:18.528Z,56.38
2018-12-11T04:50:49.689Z,55.72
2018-12-11T04:51:21.939Z,55.83
2018-12-11T04:51:53.057Z,55.65
2018-12-11T04:52:24.222Z,56.41
2018-12-11T04:52:55.398Z,56.18
2018-12-11T04:53:26.597Z,56.37
2018-12-11T04:53:57.805Z,56.49
2018-12-11T04:54:28.952Z,56.76
2018-12-11T04:55:00.596Z,56.79
2018-12-11T04:55:31.692Z,56.87
2018-12-11T04:56:02.795Z,56.53
2018-12-11T04:56:33.964Z,56.95
2018-12-11T04:57:05.657Z,57.49
2018-12-11T04:57:37.371Z,57.21
2018-12-11T04:58:08.488Z,57.09
2018-12-11T04:58:39.594Z,56.86
2018-12-11T04:59:10.950Z,57.30
2018-12-11T04:59:42.151Z,57.28
2018-12-11T05:00:13.269Z,57.17
2018-12-11T05:00:44.454Z,57.23
2018-12-11T05:01:16.330Z,57.63
2018-12-11T05:01:47.445Z,58.27
2018-12-11T05:02:18.552Z,57.54
2018-12-11T05:02:49.790Z,57.32
2018-12-11T05:03:20.954Z,57.14
2018-12-11T05:03:52.061Z,57.03
2018-12-11T05:04:24.329Z,57.53
2018-12-11T05:04:55.454Z,57.39
2018-12-11T05:05:27.148Z,58.00
2018-12-11T05:05:58.250Z,57.59
2018-12-11T05:06:29.446Z,57.62
2018-12-11T05:07:01.201Z,57.58
2018-12-11T05:07:33.180Z,58.04
2018-12-11T05:08:04.412Z,58.06
2018-12-11T05:08:35.574Z,58.16
2018-12-11T05:09:06.710Z,58.38
2018-12-11T05:09:37.825Z,58.78
2018-12-11T05:10:10.986Z,58.71
2018-12-11T05:10:42.215Z,58.41
2018-12-11T05:11:13.360Z,58.28
2018-12-11T05:11:44.505Z,58.54
2018-12-11T05:12:18.034Z,58.51
2018-12-11T05:12:49.158Z,58.37
2018-12-11T05:13:20.330Z,58.41
2018-12-11T05:13:51.467Z,58.36
2018-12-11T05:14:22.625Z,58.77
2018-12-11T05:14:53.768Z,58.54
2018-12-11T05:15:24.878Z,58.81
2018-12-11T05:15:56.075Z,58.64
2018-12-11T05:16:27.256Z,58.64
2018-12-11T05:16:59.205Z,58.89
2018-12-11T05:17:30.322Z,59.21
2018-12-11T05:18:01.432Z,58.74
2018-12-11T05:18:32.547Z,58.54
2018-12-11T05:19:03.737Z,58.55
2018-12-11T05:19:34.913Z,58.43
2018-12-11T05:20:06.052Z,58.46
2018-12-11T05:20:37.180Z,59.05
2018-12-11T05:21:08.817Z,58.08
2018-12-11T05:21:40.162Z,58.27
2018-12-11T05:22:11.320Z,58.52
2018-12-11T05:22:42.473Z,58.30
2018-12-11T05:23:13.604Z,58.37
2018-12-11T05:23:44.762Z,58.16
2018-12-11T05:24:15.881Z,58.19
2018-12-11T05:24:47.050Z,58.48
2018-12-11T05:25:18.343Z,58.10
2018-12-11T05:25:49.479Z,57.89
2018-12-11T05:26:20.632Z,58.03
2018-12-11T05:26:51.829Z,58.04
2018-12-11T05:27:22.980Z,57.75
2018-12-11T05:27:54.083Z,58.03
2018-12-11T05:28:25.184Z,58.08
2018-12-11T05:28:56.821Z,58.30
2018-12-11T05:29:28.756Z,57.83
2018-12-11T05:29:59.857Z,57.84
2018-12-11T05:30:31.748Z,57.83
2018-12-11T05:31:02.852Z,57.44
2018-12-11T05:31:33.983Z,57.66
2018-12-11T05:32:05.178Z,57.40
2018-12-11T05:32:36.358Z,57.13
2018-12-11T05:33:08.133Z,56.92
2018-12-11T05:33:39.452Z,57.28
2018-12-11T05:34:10.586Z,57.01
2018-12-11T05:34:41.719Z,57.09
2018-12-11T05:35:13.847Z,56.61
2018-12-11T05:35:45.308Z,57.13
2018-12-11T05:36:16.459Z,56.59
2018-12-11T05:36:47.638Z,56.68
2018-12-11T05:37:19.891Z,56.96
2018-12-11T05:37:51.002Z,56.64
2018-12-11T05:38:24.313Z,56.58
2018-12-11T05:38:55.443Z,57.15
2018-12-11T05:39:26.557Z,56.55
2018-12-11T05:39:57.694Z,56.10
2018-12-11T05:40:28.807Z,55.78
2018-12-11T05:40:59.940Z,56.14
2018-12-11T05:41:31.936Z,56.13
2018-12-11T05:42:03.254Z,56.70
2018-12-11T05:42:34.367Z,55.90
2018-12-11T05:43:05.546Z,56.57
2018-12-11T05:43:36.699Z,56.08
2018-12-11T05:44:07.829Z,56.91
2018-12-11T05:44:39.053Z,56.06
2018-12-11T05:45:10.281Z,55.99
2018-12-11T05:45:41.720Z,55.68
2018-12-11T05:46:13.235Z,56.16
2018-12-11T05:46:44.407Z,55.62
2018-12-11T05:47:15.665Z,55.83
2018-12-11T05:47:46.781Z,56.29
2018-12-11T05:48:20.257Z,55.69
2018-12-11T05:48:52.026Z,56.24
2018-12-11T05:49:23.145Z,55.09
2018-12-11T05:49:54.260Z,55.08
2018-12-11T05:50:25.373Z,55.41
2018-12-11T05:50:56.500Z,55.13
2018-12-11T05:51:27.612Z,55.45
2018-12-11T05:51:58.721Z,55.18
2018-12-11T05:52:29.886Z,55.34
2018-12-11T05:53:02.057Z,55.81
2018-12-11T05:53:33.396Z,55.35
2018-12-11T05:54:04.501Z,54.81
2018-12-11T05:54:35.652Z,55.44
2018-12-11T05:55:06.787Z,55.51
2018-12-11T05:55:38.700Z,55.81
2018-12-11T05:56:09.855Z,55.96
2018-12-11T05:56:41.007Z,56.11
2018-12-11T05:57:12.140Z,56.27
2018-12-11T05:57:43.891Z,54.71
2018-12-11T05:58:15.080Z,54.38
2018-12-11T05:58:46.247Z,54.56
2018-12-11T05:59:17.426Z,54.89
2018-12-11T05:59:48.576Z,54.96
2018-12-11T06:00:19.713Z,55.00
2018-12-11T06:00:50.813Z,54.84
2018-12-11T06:01:21.953Z,54.67
2018-12-11T06:01:53.078Z,56.29
2018-12-11T06:02:24.189Z,54.63
2018-12-11T06:02:55.332Z,54.60
2018-12-11T06:03:26.444Z,54.75
2018-12-11T06:03:57.592Z,55.14
2018-12-11T06:04:29.420Z,55.02
2018-12-11T06:05:00.978Z,54.90
2018-12-11T06:05:32.203Z,55.23
2018-12-11T06:06:03.323Z,55.17
2018-12-11T06:06:34.466Z,55.25
2018-12-11T06:07:05.817Z,55.04
2018-12-11T06:07:36.943Z,55.41
2018-12-11T06:08:08.360Z,55.28
2018-12-11T06:08:39.489Z,55.23
2018-12-11T06:09:10.617Z,54.91
2018-12-11T06:09:41.720Z,55.27
2018-12-11T06:10:12.909Z,55.08
2018-12-11T06:10:44.910Z,55.06
2018-12-11T06:11:16.068Z,54.88
2018-12-11T06:11:47.189Z,55.12
2018-12-11T06:12:18.872Z,55.15
2018-12-11T06:12:50.135Z,54.73
2018-12-11T06:13:21.265Z,54.59
2018-12-11T06:13:52.600Z,55.07
2018-12-11T06:14:24.871Z,54.97
2018-12-11T06:14:55.985Z,54.71
2018-12-11T06:15:27.127Z,54.33
2018-12-11T06:15:58.257Z,54.74
2018-12-11T06:16:29.374Z,54.59
2018-12-11T06:17:00.489Z,54.37
2018-12-11T06:17:31.583Z,54.20
2018-12-11T06:18:03.345Z,54.14
2018-12-11T06:19:28.317Z,54.14
2018-12-11T06:19:59.434Z,53.88
2018-12-11T06:20:30.567Z,53.61
2018-12-11T06:21:02.530Z,53.52
2018-12-11T06:21:33.646Z,53.82
2018-12-11T06:22:04.794Z,53.62
2018-12-11T06:22:35.893Z,53.78
2018-12-11T06:23:07.007Z,53.81
2018-12-11T06:23:38.157Z,53.84
2018-12-11T06:24:09.278Z,53.62
2018-12-11T06:24:40.467Z,53.32
2018-12-11T06:25:11.568Z,53.46
2018-12-11T06:25:42.664Z,53.92
2018-12-11T06:26:13.773Z,53.75
2018-12-11T06:26:44.882Z,54.14
2018-12-11T06:27:15.996Z,54.44
2018-12-11T06:27:47.108Z,53.51
2018-12-11T06:28:18.220Z,53.47
2018-12-11T06:28:49.344Z,54.18
2018-12-11T06:29:20.449Z,53.24
2018-12-11T06:29:51.592Z,53.05
2018-12-11T06:30:22.702Z,53.68
2018-12-11T06:30:53.803Z,53.43
2018-12-11T06:31:24.904Z,53.43
2018-12-11T06:31:56.027Z,53.72
2018-12-11T06:32:27.163Z,53.47
2018-12-11T06:32:58.274Z,53.21
2018-12-11T06:33:29.386Z,53.79
2018-12-11T06:34:00.521Z,53.68
2018-12-11T06:34:31.625Z,54.17
2018-12-11T06:35:02.733Z,52.88
2018-12-11T06:35:33.829Z,52.80
2018-12-11T06:36:04.917Z,53.21
2018-12-11T06:36:36.079Z,52.86
2018-12-11T06:37:07.202Z,52.64
2018-12-11T06:37:38.354Z,53.23
2018-12-11T06:38:09.580Z,53.09
2018-12-11T06:38:40.668Z,52.75
2018-12-11T06:39:11.804Z,52.85
2018-12-11T06:39:42.908Z,52.18
2018-12-11T06:40:14.041Z,52.34
2018-12-11T06:40:45.163Z,52.21
2018-12-11T06:41:16.272Z,52.49
2018-12-11T06:41:47.381Z,52.23
2018-12-11T06:42:18.493Z,54.27
2018-12-11T06:42:49.602Z,53.26
2018-12-11T06:43:20.718Z,52.02
2018-12-11T06:43:51.852Z,52.05
2018-12-11T06:44:22.942Z,53.75
2018-12-11T06:44:54.095Z,51.74
2018-12-11T06:45:25.198Z,51.78
2018-12-11T06:45:56.534Z,51.87
2018-12-11T06:46:27.637Z,51.60
2018-12-11T06:46:58.733Z,51.66